createdAt,value
2023-03-24T00:00:18.186Z,47.92
2023-03-24T00:02:46.590Z,48.02
2023-03-24T00:05:17.016Z,47.83
2023-03-24T00:07:46.637Z,48.05
2023-03-24T00:10:18.072Z,48.15
2023-03-24T00:12:46.872Z,47.92
2023-03-24T00:15:19.874Z,48.03
2023-03-24T00:17:50.492Z,47.92
2023-03-24T00:20:20.176Z,48.05
2023-03-24T00:22:50.828Z,47.80
2023-03-24T00:25:19.907Z,48.02
2023-03-24T00:27:48.863Z,47.99
2023-03-24T00:30:18.006Z,47.82
2023-03-24T00:32:45.276Z,48.06
2023-03-24T00:35:14.550Z,47.86
2023-03-24T00:37:42.883Z,47.96
2023-03-24T00:40:14.000Z,47.86
2023-03-24T00:42:45.665Z,47.89
2023-03-24T00:45:15.217Z,47.77
2023-03-24T00:47:44.904Z,47.84
2023-03-24T00:50:17.392Z,47.61
2023-03-24T00:52:47.882Z,48.00
2023-03-24T00:55:16.461Z,47.85
2023-03-24T00:57:51.776Z,47.65
2023-03-24T01:00:24.193Z,47.73
2023-03-24T01:02:55.466Z,48.05
2023-03-24T01:05:24.103Z,47.98
2023-03-24T01:07:53.682Z,47.92
2023-03-24T01:10:26.189Z,47.65
2023-03-24T01:12:56.033Z,48.00
2023-03-24T01:15:26.473Z,47.65
2023-03-24T01:17:54.365Z,47.78
2023-03-24T01:20:23.178Z,47.84
2023-03-24T01:22:51.306Z,47.64
2023-03-24T01:25:20.896Z,47.72
2023-03-24T01:27:48.788Z,47.94
2023-03-24T01:30:18.734Z,47.86
2023-03-24T01:32:45.319Z,47.65
2023-03-24T01:35:12.008Z,47.54
2023-03-24T01:37:39.461Z,47.88
2023-03-24T01:40:09.775Z,47.94
2023-03-24T01:42:38.493Z,47.50
2023-03-24T01:45:42.154Z,47.97
2023-03-24T01:48:16.465Z,47.61
2023-03-24T01:50:47.046Z,47.56
2023-03-24T01:53:13.938Z,47.75
2023-03-24T01:55:42.651Z,47.58
2023-03-24T01:58:09.838Z,47.48
2023-03-24T02:00:51.019Z,47.65
2023-03-24T02:03:40.113Z,47.72
2023-03-24T02:06:08.592Z,47.50
2023-03-24T02:08:50.608Z,47.79
2023-03-24T02:11:17.147Z,47.98
2023-03-24T02:13:50.843Z,47.92
2023-03-24T02:17:07.446Z,47.98
2023-03-24T02:19:47.645Z,48.16
2023-03-24T02:22:40.946Z,47.85
2023-03-24T02:25:16.474Z,47.88
2023-03-24T02:27:58.283Z,47.83
2023-03-24T02:30:49.860Z,47.72
2023-03-24T02:33:46.455Z,47.81
2023-03-24T02:36:50.156Z,47.91
2023-03-24T02:39:38.014Z,47.82
2023-03-24T02:42:17.181Z,47.82
2023-03-24T02:44:46.520Z,47.71
2023-03-24T02:47:20.586Z,47.68
2023-03-24T02:49:55.870Z,47.67
2023-03-24T02:52:40.444Z,47.85
2023-03-24T02:55:16.558Z,47.79
2023-03-24T02:57:46.577Z,47.84
2023-03-24T03:00:36.700Z,47.90
2023-03-24T03:03:12.032Z,47.77
2023-03-24T03:05:46.422Z,47.68
2023-03-24T03:08:17.502Z,47.85
2023-03-24T03:10:47.244Z,47.75
2023-03-24T03:13:34.051Z,47.62
2023-03-24T03:16:07.595Z,47.70
2023-03-24T03:18:43.452Z,47.63
2023-03-24T03:21:15.977Z,47.93
2023-03-24T03:23:49.651Z,47.61
2023-03-24T03:26:19.693Z,47.72
2023-03-24T03:28:57.748Z,48.06
2023-03-24T03:31:29.903Z,47.71
2023-03-24T03:34:08.713Z,48.01
2023-03-24T03:36:50.886Z,47.89
2023-03-24T03:39:34.186Z,47.87
2023-03-24T03:42:06.749Z,48.03
2023-03-24T03:44:33.566Z,48.08
2023-03-24T03:47:00.489Z,48.25
2023-03-24T03:49:37.740Z,47.84
2023-03-24T03:52:05.407Z,47.93
2023-03-24T03:54:32.698Z,48.13
2023-03-24T03:56:59.878Z,47.94
2023-03-24T03:59:37.021Z,47.93
2023-03-24T04:02:43.177Z,48.15
2023-03-24T04:05:47.378Z,47.92
2023-03-24T04:08:26.390Z,47.78
2023-03-24T04:11:40.605Z,47.72
2023-03-24T04:14:15.938Z,48.08
2023-03-24T04:17:07.038Z,47.92
2023-03-24T04:20:06.272Z,47.99
2023-03-24T04:22:49.509Z,47.83
2023-03-24T04:25:35.175Z,48.05
2023-03-24T04:28:06.384Z,48.05
2023-03-24T04:30:44.536Z,47.82
2023-03-24T04:33:25.136Z,47.95
2023-03-24T04:36:06.616Z,47.81
2023-03-24T04:38:53.210Z,47.90
2023-03-24T04:41:31.945Z,47.95
2023-03-24T04:44:11.855Z,47.98
2023-03-24T04:46:59.234Z,48.02
2023-03-24T04:49:27.169Z,47.86
2023-03-24T04:51:54.806Z,48.06
2023-03-24T04:54:25.433Z,47.90
2023-03-24T04:57:01.863Z,48.02
2023-03-24T04:59:34.181Z,48.10
2023-03-24T05:02:02.984Z,47.94
2023-03-24T05:04:30.574Z,47.86
2023-03-24T05:07:04.960Z,48.32
2023-03-24T05:09:31.680Z,47.87
2023-03-24T05:12:01.575Z,48.16
2023-03-24T05:14:31.900Z,47.79
2023-03-24T05:16:58.424Z,47.90
2023-03-24T05:19:24.976Z,48.17
2023-03-24T05:21:51.634Z,48.02
2023-03-24T05:24:18.710Z,47.97
2023-03-24T05:26:47.375Z,48.18
2023-03-24T05:29:17.176Z,47.80
2023-03-24T05:31:45.130Z,47.97
2023-03-24T05:34:23.180Z,47.92
2023-03-24T05:37:22.128Z,47.67
2023-03-24T05:39:50.580Z,48.02
2023-03-24T05:42:40.026Z,47.72
2023-03-24T05:45:07.631Z,47.45
2023-03-24T05:47:34.417Z,47.96
2023-03-24T05:50:01.114Z,47.71
2023-03-24T05:52:29.098Z,47.74
2023-03-24T05:55:07.517Z,47.75
2023-03-24T05:57:34.708Z,47.78
2023-03-24T06:00:24.725Z,47.45
2023-03-24T06:02:58.808Z,47.79
2023-03-24T06:05:31.860Z,47.82
2023-03-24T06:07:59.029Z,47.61
2023-03-24T06:10:28.511Z,47.44
2023-03-24T06:12:56.623Z,47.52
2023-03-24T06:15:27.915Z,47.74
2023-03-24T06:18:01.054Z,47.64
2023-03-24T06:20:33.880Z,47.74
2023-03-24T06:23:00.614Z,47.57
2023-03-24T06:25:35.759Z,47.58
2023-03-24T06:28:18.562Z,47.27
2023-03-24T06:30:46.849Z,47.51
2023-03-24T06:33:19.105Z,47.45
2023-03-24T06:35:46.147Z,47.36
2023-03-24T06:38:15.819Z,47.55
2023-03-24T06:40:44.101Z,47.31
2023-03-24T06:43:10.754Z,47.68
2023-03-24T06:45:40.082Z,47.49
2023-03-24T06:48:09.918Z,47.25
2023-03-24T06:50:37.999Z,47.27
2023-03-24T06:53:08.825Z,47.23
2023-03-24T06:55:36.593Z,47.31
2023-03-24T06:58:04.378Z,47.46
2023-03-24T07:00:43.272Z,47.28
2023-03-24T07:03:26.442Z,47.47
2023-03-24T07:06:13.020Z,47.28
2023-03-24T07:08:40.175Z,47.71
2023-03-24T07:11:09.849Z,47.41
2023-03-24T07:13:38.935Z,47.62
2023-03-24T07:16:06.375Z,47.57
2023-03-24T07:18:34.808Z,47.35
2023-03-24T07:21:05.166Z,47.33
2023-03-24T07:23:33.198Z,47.38
2023-03-24T07:26:04.814Z,47.62
2023-03-24T07:28:53.787Z,47.66
2023-03-24T07:31:50.783Z,47.48
2023-03-24T07:34:17.375Z,47.42
2023-03-24T07:36:43.818Z,47.47
2023-03-24T07:39:14.564Z,47.30
2023-03-24T07:41:41.225Z,47.61
2023-03-24T07:44:17.623Z,47.60
2023-03-24T07:46:49.869Z,47.46
2023-03-24T07:49:19.807Z,47.72
2023-03-24T07:52:08.644Z,47.68
2023-03-24T07:54:42.010Z,47.74
2023-03-24T07:57:11.096Z,47.49
2023-03-24T07:59:38.161Z,47.83
2023-03-24T08:02:19.987Z,47.55
2023-03-24T08:05:20.615Z,47.42
2023-03-24T08:08:19.212Z,47.56
2023-03-24T08:10:46.548Z,47.63
2023-03-24T08:13:13.357Z,47.66
2023-03-24T08:15:39.925Z,47.41
2023-03-24T08:19:58.500Z,47.89
2023-03-24T08:22:49.967Z,47.52
2023-03-24T08:25:26.743Z,47.44
2023-03-24T08:28:02.424Z,47.51
2023-03-24T08:30:28.974Z,47.52
2023-03-24T08:32:59.466Z,47.46
2023-03-24T08:35:34.872Z,47.49
2023-03-24T08:38:06.139Z,48.03
2023-03-24T08:40:34.967Z,47.78
2023-03-24T08:43:04.181Z,47.97
2023-03-24T08:45:32.443Z,47.81
2023-03-24T08:48:01.338Z,48.04
2023-03-24T08:50:32.448Z,48.09
2023-03-24T08:52:59.013Z,47.88
2023-03-24T08:55:26.320Z,47.48
2023-03-24T08:57:53.370Z,47.32
2023-03-24T09:00:21.127Z,47.03
2023-03-24T09:02:50.646Z,47.30
2023-03-24T09:05:29.353Z,47.60
2023-03-24T09:08:03.711Z,47.30
